sensor_id;sensor_type;location;lat;lon;timestamp;P1;durP1;ratioP1;P2;durP2;ratioP2
43114;SDS011;28727;50.068;14.452;2023-02-22T00:01:50;9.40;;;5.57;;
43114;SDS011;28727;50.068;14.452;2023-02-22T00:04:40;9.82;;;5.13;;
43114;SDS011;28727;50.068;14.452;2023-02-22T00:07:12;9.05;;;5.55;;
43114;SDS011;28727;50.068;14.452;2023-02-22T00:09:45;9.65;;;5.60;;
43114;SDS011;28727;50.068;14.452;2023-02-22T00:12:17;10.95;;;5.55;;
43114;SDS011;28727;50.068;14.452;2023-02-22T00:14:50;10.10;;;5.82;;
43114;SDS011;28727;50.068;14.452;2023-02-22T00:17:22;9.90;;;6.50;;
43114;SDS011;28727;50.068;14.452;2023-02-22T00:19:54;10.10;;;6.05;;
43114;SDS011;28727;50.068;14.452;2023-02-22T00:22:25;10.23;;;5.90;;
43114;SDS011;28727;50.068;14.452;2023-02-22T00:24:57;10.95;;;5.82;;
43114;SDS011;28727;50.068;14.452;2023-02-22T00:27:29;11.63;;;6.13;;
43114;SDS011;28727;50.068;14.452;2023-02-22T00:30:02;11.73;;;7.00;;
43114;SDS011;28727;50.068;14.452;2023-02-22T00:32:39;10.43;;;6.03;;
43114;SDS011;28727;50.068;14.452;2023-02-22T00:35:13;9.02;;;5.93;;
43114;SDS011;28727;50.068;14.452;2023-02-22T00:37:47;9.27;;;5.82;;
43114;SDS011;28727;50.068;14.452;2023-02-22T00:40:21;10.85;;;5.82;;
43114;SDS011;28727;50.068;14.452;2023-02-22T00:42:55;10.35;;;6.15;;
43114;SDS011;28727;50.068;14.452;2023-02-22T00:45:31;11.45;;;5.97;;
43114;SDS011;28727;50.068;14.452;2023-02-22T00:48:05;11.10;;;5.85;;
43114;SDS011;28727;50.068;14.452;2023-02-22T00:50:37;9.25;;;5.75;;
43114;SDS011;28727;50.068;14.452;2023-02-22T00:53:09;12.13;;;6.32;;
43114;SDS011;28727;50.068;14.452;2023-02-22T00:55:43;10.30;;;6.18;;
43114;SDS011;28727;50.068;14.452;2023-02-22T00:58:15;9.60;;;6.03;;
43114;SDS011;28727;50.068;14.452;2023-02-22T01:00:47;11.13;;;6.22;;
43114;SDS011;28727;50.068;14.452;2023-02-22T01:03:19;10.55;;;6.43;;
43114;SDS011;28727;50.068;14.452;2023-02-22T01:05:53;12.02;;;6.00;;
43114;SDS011;28727;50.068;14.452;2023-02-22T01:08:24;9.80;;;6.43;;
43114;SDS011;28727;50.068;14.452;2023-02-22T01:10:56;10.35;;;5.57;;
43114;SDS011;28727;50.068;14.452;2023-02-22T01:13:29;11.30;;;6.10;;
43114;SDS011;28727;50.068;14.452;2023-02-22T01:16:03;12.77;;;6.32;;
43114;SDS011;28727;50.068;14.452;2023-02-22T01:18:40;11.10;;;6.30;;
43114;SDS011;28727;50.068;14.452;2023-02-22T01:21:12;11.57;;;6.60;;
43114;SDS011;28727;50.068;14.452;2023-02-22T01:23:45;9.95;;;5.72;;
43114;SDS011;28727;50.068;14.452;2023-02-22T01:26:17;9.50;;;6.50;;
43114;SDS011;28727;50.068;14.452;2023-02-22T01:28:49;10.88;;;6.57;;
43114;SDS011;28727;50.068;14.452;2023-02-22T01:31:21;10.77;;;6.68;;
43114;SDS011;28727;50.068;14.452;2023-02-22T01:33:54;9.73;;;6.22;;
43114;SDS011;28727;50.068;14.452;2023-02-22T01:36:26;11.70;;;6.45;;
43114;SDS011;28727;50.068;14.452;2023-02-22T01:38:58;11.38;;;6.95;;
43114;SDS011;28727;50.068;14.452;2023-02-22T01:41:31;12.38;;;7.07;;
43114;SDS011;28727;50.068;14.452;2023-02-22T01:47:08;11.70;;;7.20;;
43114;SDS011;28727;50.068;14.452;2023-02-22T01:49:41;10.60;;;6.80;;
43114;SDS011;28727;50.068;14.452;2023-02-22T01:52:19;11.88;;;7.38;;
43114;SDS011;28727;50.068;14.452;2023-02-22T01:54:53;11.20;;;6.68;;
43114;SDS011;28727;50.068;14.452;2023-02-22T01:57:30;12.43;;;7.03;;
43114;SDS011;28727;50.068;14.452;2023-02-22T02:00:23;13.18;;;6.90;;
43114;SDS011;28727;50.068;14.452;2023-02-22T02:02:59;12.98;;;7.15;;
43114;SDS011;28727;50.068;14.452;2023-02-22T02:05:33;12.88;;;6.63;;
43114;SDS011;28727;50.068;14.452;2023-02-22T02:08:10;12.43;;;7.13;;
43114;SDS011;28727;50.068;14.452;2023-02-22T02:10:53;9.48;;;6.20;;
43114;SDS011;28727;50.068;14.452;2023-02-22T02:13:26;12.30;;;7.43;;
43114;SDS011;28727;50.068;14.452;2023-02-22T02:15:58;11.10;;;6.90;;
43114;SDS011;28727;50.068;14.452;2023-02-22T02:18:32;13.40;;;7.13;;
43114;SDS011;28727;50.068;14.452;2023-02-22T02:32:09;10.85;;;7.18;;
43114;SDS011;28727;50.068;14.452;2023-02-22T02:34:59;13.68;;;7.28;;
43114;SDS011;28727;50.068;14.452;2023-02-22T02:37:53;12.15;;;7.28;;
43114;SDS011;28727;50.068;14.452;2023-02-22T02:40:51;11.68;;;6.75;;
43114;SDS011;28727;50.068;14.452;2023-02-22T02:46:32;11.68;;;7.55;;
43114;SDS011;28727;50.068;14.452;2023-02-22T02:49:10;12.13;;;7.75;;
43114;SDS011;28727;50.068;14.452;2023-02-22T02:51:49;12.00;;;7.47;;
43114;SDS011;28727;50.068;14.452;2023-02-22T02:54:24;12.43;;;7.78;;
43114;SDS011;28727;50.068;14.452;2023-02-22T02:57:00;14.18;;;7.82;;
43114;SDS011;28727;50.068;14.452;2023-02-22T02:59:34;11.48;;;7.55;;
43114;SDS011;28727;50.068;14.452;2023-02-22T03:02:24;11.68;;;7.57;;
43114;SDS011;28727;50.068;14.452;2023-02-22T03:08:12;14.82;;;8.73;;
43114;SDS011;28727;50.068;14.452;2023-02-22T03:11:00;13.93;;;8.15;;
43114;SDS011;28727;50.068;14.452;2023-02-22T03:16:45;14.43;;;8.25;;
43114;SDS011;28727;50.068;14.452;2023-02-22T03:19:31;12.82;;;8.02;;
43114;SDS011;28727;50.068;14.452;2023-02-22T03:22:11;15.25;;;8.60;;
43114;SDS011;28727;50.068;14.452;2023-02-22T03:25:02;15.98;;;7.85;;
43114;SDS011;28727;50.068;14.452;2023-02-22T03:27:46;14.77;;;8.20;;
43114;SDS011;28727;50.068;14.452;2023-02-22T03:36:35;13.18;;;8.27;;
43114;SDS011;28727;50.068;14.452;2023-02-22T03:39:15;12.77;;;7.90;;
43114;SDS011;28727;50.068;14.452;2023-02-22T03:41:49;15.77;;;8.32;;
43114;SDS011;28727;50.068;14.452;2023-02-22T03:44:28;13.18;;;8.27;;
43114;SDS011;28727;50.068;14.452;2023-02-22T03:47:05;14.43;;;7.88;;
43114;SDS011;28727;50.068;14.452;2023-02-22T03:50:04;16.70;;;8.30;;
43114;SDS011;28727;50.068;14.452;2023-02-22T03:52:39;14.02;;;7.95;;
43114;SDS011;28727;50.068;14.452;2023-02-22T03:55:16;15.35;;;8.50;;
43114;SDS011;28727;50.068;14.452;2023-02-22T03:57:50;15.07;;;8.35;;
43114;SDS011;28727;50.068;14.452;2023-02-22T04:00:26;15.35;;;8.98;;
43114;SDS011;28727;50.068;14.452;2023-02-22T04:03:01;14.23;;;8.02;;
43114;SDS011;28727;50.068;14.452;2023-02-22T04:05:33;17.25;;;8.38;;
43114;SDS011;28727;50.068;14.452;2023-02-22T04:08:05;16.98;;;9.02;;
43114;SDS011;28727;50.068;14.452;2023-02-22T04:10:37;15.02;;;8.05;;
43114;SDS011;28727;50.068;14.452;2023-02-22T04:13:09;16.25;;;8.68;;
43114;SDS011;28727;50.068;14.452;2023-02-22T04:15:46;14.82;;;8.45;;
43114;SDS011;28727;50.068;14.452;2023-02-22T04:18:18;15.35;;;8.20;;
43114;SDS011;28727;50.068;14.452;2023-02-22T04:20:51;14.73;;;8.38;;
43114;SDS011;28727;50.068;14.452;2023-02-22T04:23:42;14.25;;;8.95;;
43114;SDS011;28727;50.068;14.452;2023-02-22T04:26:15;15.20;;;9.27;;
43114;SDS011;28727;50.068;14.452;2023-02-22T04:28:55;14.77;;;8.48;;
43114;SDS011;28727;50.068;14.452;2023-02-22T04:31:28;15.30;;;8.52;;
43114;SDS011;28727;50.068;14.452;2023-02-22T04:34:02;15.77;;;9.80;;
43114;SDS011;28727;50.068;14.452;2023-02-22T04:36:38;14.30;;;9.15;;
43114;SDS011;28727;50.068;14.452;2023-02-22T04:39:12;14.40;;;9.20;;
43114;SDS011;28727;50.068;14.452;2023-02-22T04:41:45;14.95;;;9.40;;
43114;SDS011;28727;50.068;14.452;2023-02-22T04:44:18;17.05;;;9.05;;
43114;SDS011;28727;50.068;14.452;2023-02-22T04:46:49;13.15;;;8.88;;
43114;SDS011;28727;50.068;14.452;2023-02-22T04:49:21;15.82;;;9.15;;
43114;SDS011;28727;50.068;14.452;2023-02-22T04:51:54;14.45;;;8.77;;
43114;SDS011;28727;50.068;14.452;2023-02-22T04:54:34;16.15;;;9.25;;
43114;SDS011;28727;50.068;14.452;2023-02-22T04:57:06;19.98;;;9.82;;
43114;SDS011;28727;50.068;14.452;2023-02-22T04:59:37;14.68;;;8.65;;
43114;SDS011;28727;50.068;14.452;2023-02-22T05:02:14;15.20;;;8.95;;
43114;SDS011;28727;50.068;14.452;2023-02-22T05:04:46;25.75;;;11.63;;
43114;SDS011;28727;50.068;14.452;2023-02-22T05:07:18;15.90;;;9.13;;
43114;SDS011;28727;50.068;14.452;2023-02-22T05:09:50;14.43;;;9.23;;
43114;SDS011;28727;50.068;14.452;2023-02-22T05:12:22;16.98;;;9.27;;
43114;SDS011;28727;50.068;14.452;2023-02-22T05:14:53;14.75;;;9.80;;
43114;SDS011;28727;50.068;14.452;2023-02-22T05:17:25;19.02;;;9.48;;
43114;SDS011;28727;50.068;14.452;2023-02-22T05:19:57;17.27;;;10.07;;
43114;SDS011;28727;50.068;14.452;2023-02-22T05:22:29;15.40;;;9.43;;
43114;SDS011;28727;50.068;14.452;2023-02-22T05:25:00;15.45;;;9.43;;
43114;SDS011;28727;50.068;14.452;2023-02-22T05:27:34;19.45;;;10.70;;
43114;SDS011;28727;50.068;14.452;2023-02-22T05:30:06;15.55;;;10.20;;
43114;SDS011;28727;50.068;14.452;2023-02-22T05:32:39;17.70;;;9.55;;
43114;SDS011;28727;50.068;14.452;2023-02-22T05:35:12;19.10;;;9.43;;
43114;SDS011;28727;50.068;14.452;2023-02-22T05:37:44;20.02;;;10.10;;
43114;SDS011;28727;50.068;14.452;2023-02-22T05:40:19;14.57;;;9.10;;
43114;SDS011;28727;50.068;14.452;2023-02-22T05:42:53;16.58;;;9.30;;
43114;SDS011;28727;50.068;14.452;2023-02-22T05:45:27;15.23;;;9.20;;
43114;SDS011;28727;50.068;14.452;2023-02-22T05:47:59;16.63;;;9.50;;
43114;SDS011;28727;50.068;14.452;2023-02-22T05:50:33;17.77;;;9.20;;
43114;SDS011;28727;50.068;14.452;2023-02-22T05:53:05;17.08;;;9.77;;
43114;SDS011;28727;50.068;14.452;2023-02-22T05:55:36;16.67;;;9.40;;
43114;SDS011;28727;50.068;14.452;2023-02-22T05:58:08;16.23;;;10.10;;
43114;SDS011;28727;50.068;14.452;2023-02-22T06:00:40;15.13;;;8.68;;
43114;SDS011;28727;50.068;14.452;2023-02-22T06:03:12;17.08;;;9.65;;
43114;SDS011;28727;50.068;14.452;2023-02-22T06:05:45;16.05;;;9.65;;
43114;SDS011;28727;50.068;14.452;2023-02-22T06:08:17;22.55;;;10.95;;
43114;SDS011;28727;50.068;14.452;2023-02-22T06:10:49;26.60;;;13.90;;
43114;SDS011;28727;50.068;14.452;2023-02-22T06:13:21;26.08;;;17.58;;
43114;SDS011;28727;50.068;14.452;2023-02-22T06:15:53;26.27;;;15.98;;
43114;SDS011;28727;50.068;14.452;2023-02-22T06:18:24;28.65;;;16.80;;
43114;SDS011;28727;50.068;14.452;2023-02-22T06:20:57;30.77;;;18.85;;
43114;SDS011;28727;50.068;14.452;2023-02-22T06:23:30;28.42;;;18.70;;
43114;SDS011;28727;50.068;14.452;2023-02-22T06:26:01;27.23;;;18.33;;
43114;SDS011;28727;50.068;14.452;2023-02-22T06:28:33;24.88;;;15.75;;
43114;SDS011;28727;50.068;14.452;2023-02-22T06:31:05;27.08;;;16.25;;
43114;SDS011;28727;50.068;14.452;2023-02-22T06:33:37;25.17;;;14.45;;
43114;SDS011;28727;50.068;14.452;2023-02-22T06:36:08;21.55;;;13.18;;
43114;SDS011;28727;50.068;14.452;2023-02-22T06:38:40;19.33;;;11.05;;
43114;SDS011;28727;50.068;14.452;2023-02-22T06:41:13;18.15;;;12.20;;
43114;SDS011;28727;50.068;14.452;2023-02-22T06:43:46;20.80;;;12.55;;
43114;SDS011;28727;50.068;14.452;2023-02-22T06:46:18;20.08;;;12.38;;
43114;SDS011;28727;50.068;14.452;2023-02-22T06:48:51;21.83;;;12.93;;
43114;SDS011;28727;50.068;14.452;2023-02-22T06:51:23;19.30;;;12.75;;
43114;SDS011;28727;50.068;14.452;2023-02-22T06:53:55;22.83;;;12.43;;
43114;SDS011;28727;50.068;14.452;2023-02-22T06:56:27;23.73;;;13.43;;
43114;SDS011;28727;50.068;14.452;2023-02-22T06:58:58;21.55;;;12.50;;
43114;SDS011;28727;50.068;14.452;2023-02-22T07:01:33;25.92;;;13.73;;
43114;SDS011;28727;50.068;14.452;2023-02-22T07:04:04;27.25;;;14.55;;
43114;SDS011;28727;50.068;14.452;2023-02-22T07:06:36;26.85;;;17.08;;
43114;SDS011;28727;50.068;14.452;2023-02-22T07:09:08;28.30;;;15.32;;
43114;SDS011;28727;50.068;14.452;2023-02-22T07:11:40;24.48;;;14.98;;
43114;SDS011;28727;50.068;14.452;2023-02-22T07:14:15;29.70;;;15.80;;
43114;SDS011;28727;50.068;14.452;2023-02-22T07:16:47;24.25;;;14.18;;
43114;SDS011;28727;50.068;14.452;2023-02-22T07:19:19;35.90;;;17.60;;
43114;SDS011;28727;50.068;14.452;2023-02-22T07:21:51;41.55;;;24.15;;
43114;SDS011;28727;50.068;14.452;2023-02-22T07:24:29;51.67;;;27.35;;
43114;SDS011;28727;50.068;14.452;2023-02-22T07:27:01;39.88;;;22.35;;
43114;SDS011;28727;50.068;14.452;2023-02-22T07:29:33;37.80;;;18.77;;
43114;SDS011;28727;50.068;14.452;2023-02-22T07:32:06;32.20;;;15.95;;
43114;SDS011;28727;50.068;14.452;2023-02-22T07:34:39;31.35;;;14.40;;
43114;SDS011;28727;50.068;14.452;2023-02-22T07:37:12;28.48;;;13.98;;
43114;SDS011;28727;50.068;14.452;2023-02-22T07:39:43;32.05;;;14.70;;
43114;SDS011;28727;50.068;14.452;2023-02-22T07:42:15;26.90;;;14.07;;
43114;SDS011;28727;50.068;14.452;2023-02-22T07:44:49;23.60;;;13.82;;
43114;SDS011;28727;50.068;14.452;2023-02-22T07:47:21;28.20;;;13.77;;
43114;SDS011;28727;50.068;14.452;2023-02-22T07:49:52;22.50;;;12.98;;
43114;SDS011;28727;50.068;14.452;2023-02-22T07:52:24;21.98;;;13.18;;
43114;SDS011;28727;50.068;14.452;2023-02-22T07:54:56;22.52;;;10.80;;
43114;SDS011;28727;50.068;14.452;2023-02-22T07:57:28;25.20;;;13.38;;
43114;SDS011;28727;50.068;14.452;2023-02-22T07:59:59;22.50;;;13.10;;
43114;SDS011;28727;50.068;14.452;2023-02-22T08:02:34;14.32;;;9.90;;
43114;SDS011;28727;50.068;14.452;2023-02-22T08:05:06;17.10;;;10.48;;
43114;SDS011;28727;50.068;14.452;2023-02-22T08:07:41;16.92;;;10.00;;
43114;SDS011;28727;50.068;14.452;2023-02-22T08:10:15;18.75;;;11.00;;
43114;SDS011;28727;50.068;14.452;2023-02-22T08:17:55;16.10;;;9.85;;
43114;SDS011;28727;50.068;14.452;2023-02-22T08:20:28;19.02;;;9.90;;
43114;SDS011;28727;50.068;14.452;2023-02-22T08:23:00;15.52;;;8.75;;
43114;SDS011;28727;50.068;14.452;2023-02-22T08:25:32;16.35;;;9.07;;
43114;SDS011;28727;50.068;14.452;2023-02-22T08:28:05;17.45;;;10.00;;
43114;SDS011;28727;50.068;14.452;2023-02-22T08:30:39;18.73;;;12.10;;
43114;SDS011;28727;50.068;14.452;2023-02-22T08:35:47;19.27;;;10.60;;
43114;SDS011;28727;50.068;14.452;2023-02-22T08:38:25;17.60;;;10.77;;
43114;SDS011;28727;50.068;14.452;2023-02-22T08:40:58;19.67;;;12.32;;
43114;SDS011;28727;50.068;14.452;2023-02-22T08:43:30;17.23;;;10.57;;
43114;SDS011;28727;50.068;14.452;2023-02-22T08:46:02;16.40;;;10.23;;
43114;SDS011;28727;50.068;14.452;2023-02-22T08:48:34;18.73;;;10.10;;
43114;SDS011;28727;50.068;14.452;2023-02-22T08:51:05;17.40;;;10.20;;
43114;SDS011;28727;50.068;14.452;2023-02-22T08:53:37;18.13;;;11.38;;
43114;SDS011;28727;50.068;14.452;2023-02-22T08:56:09;22.05;;;10.52;;
43114;SDS011;28727;50.068;14.452;2023-02-22T08:58:41;13.35;;;8.25;;
43114;SDS011;28727;50.068;14.452;2023-02-22T09:01:13;15.32;;;7.97;;
43114;SDS011;28727;50.068;14.452;2023-02-22T09:03:52;13.52;;;8.35;;
43114;SDS011;28727;50.068;14.452;2023-02-22T09:06:23;12.10;;;7.15;;
43114;SDS011;28727;50.068;14.452;2023-02-22T09:08:55;12.88;;;8.02;;
43114;SDS011;28727;50.068;14.452;2023-02-22T09:11:27;14.32;;;8.73;;
43114;SDS011;28727;50.068;14.452;2023-02-22T09:13:59;12.45;;;7.53;;
43114;SDS011;28727;50.068;14.452;2023-02-22T09:16:30;12.98;;;8.77;;
43114;SDS011;28727;50.068;14.452;2023-02-22T09:19:02;12.82;;;7.45;;
43114;SDS011;28727;50.068;14.452;2023-02-22T09:21:34;10.93;;;6.53;;
43114;SDS011;28727;50.068;14.452;2023-02-22T09:24:06;11.32;;;6.70;;
43114;SDS011;28727;50.068;14.452;2023-02-22T09:26:44;13.02;;;7.35;;
43114;SDS011;28727;50.068;14.452;2023-02-22T09:29:17;10.52;;;6.80;;
43114;SDS011;28727;50.068;14.452;2023-02-22T09:31:53;11.82;;;7.20;;
43114;SDS011;28727;50.068;14.452;2023-02-22T09:34:26;13.93;;;7.20;;
43114;SDS011;28727;50.068;14.452;2023-02-22T09:37:00;11.32;;;5.90;;
43114;SDS011;28727;50.068;14.452;2023-02-22T09:39:31;9.25;;;6.30;;
43114;SDS011;28727;50.068;14.452;2023-02-22T09:42:12;12.40;;;7.50;;
43114;SDS011;28727;50.068;14.452;2023-02-22T09:44:51;11.32;;;6.97;;
43114;SDS011;28727;50.068;14.452;2023-02-22T09:48:02;12.93;;;6.85;;
43114;SDS011;28727;50.068;14.452;2023-02-22T09:50:52;11.02;;;6.68;;
43114;SDS011;28727;50.068;14.452;2023-02-22T09:53:34;15.57;;;7.25;;
43114;SDS011;28727;50.068;14.452;2023-02-22T09:56:16;11.07;;;6.75;;
43114;SDS011;28727;50.068;14.452;2023-02-22T09:58:51;13.70;;;7.15;;
43114;SDS011;28727;50.068;14.452;2023-02-22T10:01:27;12.98;;;7.05;;
43114;SDS011;28727;50.068;14.452;2023-02-22T10:09:26;15.07;;;7.30;;
43114;SDS011;28727;50.068;14.452;2023-02-22T10:17:39;11.52;;;7.72;;
43114;SDS011;28727;50.068;14.452;2023-02-22T10:20:37;11.38;;;7.55;;
43114;SDS011;28727;50.068;14.452;2023-02-22T10:23:15;13.15;;;8.02;;
43114;SDS011;28727;50.068;14.452;2023-02-22T10:25:52;14.75;;;7.45;;
43114;SDS011;28727;50.068;14.452;2023-02-22T10:28:33;13.52;;;7.00;;
43114;SDS011;28727;50.068;14.452;2023-02-22T10:31:12;12.27;;;7.22;;
43114;SDS011;28727;50.068;14.452;2023-02-22T10:33:54;11.57;;;6.65;;
43114;SDS011;28727;50.068;14.452;2023-02-22T10:36:30;16.05;;;7.72;;
43114;SDS011;28727;50.068;14.452;2023-02-22T10:39:24;14.05;;;8.45;;
43114;SDS011;28727;50.068;14.452;2023-02-22T10:42:00;12.65;;;7.50;;
43114;SDS011;28727;50.068;14.452;2023-02-22T10:44:37;13.40;;;8.05;;
43114;SDS011;28727;50.068;14.452;2023-02-22T10:47:11;13.45;;;8.43;;
43114;SDS011;28727;50.068;14.452;2023-02-22T10:49:57;17.83;;;8.02;;
43114;SDS011;28727;50.068;14.452;2023-02-22T10:52:31;14.25;;;8.05;;
43114;SDS011;28727;50.068;14.452;2023-02-22T10:55:05;15.65;;;8.48;;
43114;SDS011;28727;50.068;14.452;2023-02-22T10:57:46;13.35;;;8.10;;
43114;SDS011;28727;50.068;14.452;2023-02-22T11:00:29;16.77;;;8.88;;
43114;SDS011;28727;50.068;14.452;2023-02-22T11:05:52;13.52;;;8.10;;
43114;SDS011;28727;50.068;14.452;2023-02-22T11:08:26;13.93;;;8.73;;
43114;SDS011;28727;50.068;14.452;2023-02-22T11:11:00;12.65;;;7.90;;
43114;SDS011;28727;50.068;14.452;2023-02-22T11:13:38;14.88;;;8.55;;
43114;SDS011;28727;50.068;14.452;2023-02-22T11:16:22;13.88;;;8.10;;
43114;SDS011;28727;50.068;14.452;2023-02-22T11:24:43;17.10;;;8.20;;
43114;SDS011;28727;50.068;14.452;2023-02-22T11:27:53;11.95;;;7.13;;
43114;SDS011;28727;50.068;14.452;2023-02-22T11:32:59;11.98;;;7.68;;
43114;SDS011;28727;50.068;14.452;2023-02-22T11:35:35;15.05;;;7.88;;
43114;SDS011;28727;50.068;14.452;2023-02-22T11:41:10;11.73;;;7.35;;
43114;SDS011;28727;50.068;14.452;2023-02-22T11:46:54;11.85;;;7.60;;
43114;SDS011;28727;50.068;14.452;2023-02-22T11:49:34;13.82;;;7.53;;
43114;SDS011;28727;50.068;14.452;2023-02-22T11:57:33;11.90;;;7.30;;
43114;SDS011;28727;50.068;14.452;2023-02-22T12:20:46;10.93;;;7.50;;
43114;SDS011;28727;50.068;14.452;2023-02-22T12:26:15;12.63;;;7.57;;
43114;SDS011;28727;50.068;14.452;2023-02-22T12:28:55;12.77;;;7.50;;
43114;SDS011;28727;50.068;14.452;2023-02-22T12:31:32;12.70;;;8.05;;
43114;SDS011;28727;50.068;14.452;2023-02-22T12:45:38;9.95;;;6.65;;
43114;SDS011;28727;50.068;14.452;2023-02-22T12:50:45;11.68;;;6.78;;
43114;SDS011;28727;50.068;14.452;2023-02-22T12:53:27;16.17;;;7.03;;
43114;SDS011;28727;50.068;14.452;2023-02-22T12:56:19;11.27;;;7.53;;
43114;SDS011;28727;50.068;14.452;2023-02-22T12:59:25;9.73;;;6.20;;
43114;SDS011;28727;50.068;14.452;2023-02-22T13:02:10;9.05;;;5.90;;
43114;SDS011;28727;50.068;14.452;2023-02-22T13:04:48;9.45;;;6.45;;
43114;SDS011;28727;50.068;14.452;2023-02-22T13:13:48;8.75;;;5.80;;
43114;SDS011;28727;50.068;14.452;2023-02-22T13:16:44;7.72;;;5.05;;
43114;SDS011;28727;50.068;14.452;2023-02-22T13:19:32;9.13;;;6.15;;
43114;SDS011;28727;50.068;14.452;2023-02-22T13:25:07;9.70;;;5.75;;
43114;SDS011;28727;50.068;14.452;2023-02-22T13:27:48;9.50;;;5.70;;
43114;SDS011;28727;50.068;14.452;2023-02-22T13:33:29;8.55;;;5.65;;
43114;SDS011;28727;50.068;14.452;2023-02-22T13:56:21;8.18;;;5.20;;
43114;SDS011;28727;50.068;14.452;2023-02-22T13:58:59;11.85;;;5.05;;
43114;SDS011;28727;50.068;14.452;2023-02-22T14:01:36;8.27;;;5.22;;
43114;SDS011;28727;50.068;14.452;2023-02-22T14:07:03;9.30;;;6.20;;
43114;SDS011;28727;50.068;14.452;2023-02-22T14:09:55;12.05;;;6.15;;
43114;SDS011;28727;50.068;14.452;2023-02-22T14:18:03;10.00;;;6.45;;
43114;SDS011;28727;50.068;14.452;2023-02-22T14:20:37;11.15;;;6.45;;
43114;SDS011;28727;50.068;14.452;2023-02-22T14:26:24;9.13;;;6.45;;
43114;SDS011;28727;50.068;14.452;2023-02-22T14:29:00;9.43;;;6.65;;
43114;SDS011;28727;50.068;14.452;2023-02-22T14:34:20;12.05;;;7.13;;
43114;SDS011;28727;50.068;14.452;2023-02-22T14:39:52;11.25;;;6.65;;
43114;SDS011;28727;50.068;14.452;2023-02-22T14:42:33;11.43;;;6.95;;
43114;SDS011;28727;50.068;14.452;2023-02-22T14:47:52;9.48;;;6.60;;
43114;SDS011;28727;50.068;14.452;2023-02-22T14:56:20;10.25;;;6.43;;
43114;SDS011;28727;50.068;14.452;2023-02-22T14:59:12;10.52;;;6.70;;
43114;SDS011;28727;50.068;14.452;2023-02-22T15:02:05;12.70;;;6.85;;
43114;SDS011;28727;50.068;14.452;2023-02-22T15:04:53;11.95;;;6.65;;
43114;SDS011;28727;50.068;14.452;2023-02-22T15:07:27;11.73;;;7.03;;
43114;SDS011;28727;50.068;14.452;2023-02-22T15:10:21;11.82;;;7.68;;
43114;SDS011;28727;50.068;14.452;2023-02-22T15:13:14;10.57;;;7.10;;
43114;SDS011;28727;50.068;14.452;2023-02-22T15:15:58;11.48;;;7.82;;
43114;SDS011;28727;50.068;14.452;2023-02-22T15:21:15;14.90;;;8.90;;
43114;SDS011;28727;50.068;14.452;2023-02-22T15:23:52;11.30;;;7.40;;
43114;SDS011;28727;50.068;14.452;2023-02-22T15:29:13;13.70;;;7.60;;
43114;SDS011;28727;50.068;14.452;2023-02-22T15:31:49;11.43;;;7.13;;
43114;SDS011;28727;50.068;14.452;2023-02-22T15:34:27;15.00;;;7.97;;
43114;SDS011;28727;50.068;14.452;2023-02-22T15:37:01;13.77;;;7.68;;
43114;SDS011;28727;50.068;14.452;2023-02-22T15:39:50;13.80;;;8.07;;
43114;SDS011;28727;50.068;14.452;2023-02-22T15:42:29;15.02;;;8.55;;
43114;SDS011;28727;50.068;14.452;2023-02-22T15:45:01;11.50;;;7.90;;
43114;SDS011;28727;50.068;14.452;2023-02-22T15:47:33;13.43;;;8.45;;
43114;SDS011;28727;50.068;14.452;2023-02-22T15:55:41;12.55;;;8.18;;
43114;SDS011;28727;50.068;14.452;2023-02-22T16:03:34;12.80;;;8.75;;
43114;SDS011;28727;50.068;14.452;2023-02-22T16:09:15;14.10;;;9.10;;
43114;SDS011;28727;50.068;14.452;2023-02-22T16:12:06;16.92;;;8.82;;
43114;SDS011;28727;50.068;14.452;2023-02-22T16:14:51;14.40;;;8.77;;
43114;SDS011;28727;50.068;14.452;2023-02-22T16:17:28;17.13;;;9.07;;
43114;SDS011;28727;50.068;14.452;2023-02-22T16:22:44;15.23;;;9.02;;
43114;SDS011;28727;50.068;14.452;2023-02-22T16:27:59;15.02;;;8.95;;
43114;SDS011;28727;50.068;14.452;2023-02-22T16:30:57;16.10;;;8.77;;
43114;SDS011;28727;50.068;14.452;2023-02-22T16:33:29;13.85;;;9.20;;
43114;SDS011;28727;50.068;14.452;2023-02-22T16:36:04;17.73;;;10.05;;
43114;SDS011;28727;50.068;14.452;2023-02-22T16:38:38;19.50;;;9.90;;
43114;SDS011;28727;50.068;14.452;2023-02-22T16:43:50;14.73;;;8.68;;
43114;SDS011;28727;50.068;14.452;2023-02-22T16:46:21;15.52;;;8.27;;
43114;SDS011;28727;50.068;14.452;2023-02-22T16:48:53;16.40;;;9.63;;
43114;SDS011;28727;50.068;14.452;2023-02-22T16:51:25;19.08;;;10.20;;
43114;SDS011;28727;50.068;14.452;2023-02-22T16:53:58;21.35;;;10.75;;
43114;SDS011;28727;50.068;14.452;2023-02-22T16:56:30;17.48;;;9.60;;
43114;SDS011;28727;50.068;14.452;2023-02-22T16:59:05;16.73;;;9.82;;
43114;SDS011;28727;50.068;14.452;2023-02-22T17:01:40;19.42;;;10.43;;
43114;SDS011;28727;50.068;14.452;2023-02-22T17:04:16;17.10;;;8.57;;
43114;SDS011;28727;50.068;14.452;2023-02-22T17:06:50;17.52;;;9.68;;
43114;SDS011;28727;50.068;14.452;2023-02-22T17:09:23;17.77;;;9.23;;
43114;SDS011;28727;50.068;14.452;2023-02-22T17:11:54;19.08;;;9.57;;
43114;SDS011;28727;50.068;14.452;2023-02-22T17:14:29;16.33;;;9.23;;
43114;SDS011;28727;50.068;14.452;2023-02-22T17:17:03;18.38;;;9.85;;
43114;SDS011;28727;50.068;14.452;2023-02-22T17:19:36;19.55;;;9.30;;
43114;SDS011;28727;50.068;14.452;2023-02-22T17:22:18;14.63;;;9.13;;
43114;SDS011;28727;50.068;14.452;2023-02-22T17:24:51;17.52;;;10.02;;
43114;SDS011;28727;50.068;14.452;2023-02-22T17:27:23;12.68;;;8.50;;
43114;SDS011;28727;50.068;14.452;2023-02-22T17:29:54;15.15;;;8.63;;
43114;SDS011;28727;50.068;14.452;2023-02-22T17:32:26;16.70;;;10.15;;
43114;SDS011;28727;50.068;14.452;2023-02-22T17:34:58;17.88;;;9.90;;
43114;SDS011;28727;50.068;14.452;2023-02-22T17:37:30;17.73;;;10.50;;
43114;SDS011;28727;50.068;14.452;2023-02-22T17:40:01;15.98;;;9.93;;
43114;SDS011;28727;50.068;14.452;2023-02-22T17:42:33;16.20;;;9.18;;
43114;SDS011;28727;50.068;14.452;2023-02-22T17:45:05;18.05;;;10.18;;
43114;SDS011;28727;50.068;14.452;2023-02-22T17:47:37;18.17;;;10.43;;
43114;SDS011;28727;50.068;14.452;2023-02-22T17:50:15;19.10;;;11.55;;
43114;SDS011;28727;50.068;14.452;2023-02-22T17:52:48;23.02;;;12.05;;
43114;SDS011;28727;50.068;14.452;2023-02-22T17:55:24;34.22;;;19.73;;
43114;SDS011;28727;50.068;14.452;2023-02-22T17:57:56;28.05;;;17.23;;
43114;SDS011;28727;50.068;14.452;2023-02-22T18:00:29;21.40;;;12.30;;
43114;SDS011;28727;50.068;14.452;2023-02-22T18:03:05;23.80;;;13.98;;
43114;SDS011;28727;50.068;14.452;2023-02-22T18:05:41;18.05;;;11.15;;
43114;SDS011;28727;50.068;14.452;2023-02-22T18:10:46;19.10;;;10.52;;
43114;SDS011;28727;50.068;14.452;2023-02-22T18:13:18;17.73;;;10.38;;
43114;SDS011;28727;50.068;14.452;2023-02-22T18:15:49;18.52;;;10.45;;
43114;SDS011;28727;50.068;14.452;2023-02-22T18:18:22;19.23;;;11.98;;
43114;SDS011;28727;50.068;14.452;2023-02-22T18:20:54;16.05;;;10.35;;
43114;SDS011;28727;50.068;14.452;2023-02-22T18:23:30;18.30;;;10.27;;
43114;SDS011;28727;50.068;14.452;2023-02-22T18:26:02;15.35;;;9.38;;